BKPR/PRN METAR and TAF weather

Enter ICAO airport designator
Station Type Date Time Source
BKPR METAR 2020/02/21 15:30 UTC NOAA

BKPR 211530Z VRB03KT 9999 SCT080 10/M09 Q1021 NOSIG RMK 17010095


Station Type Date Time Source
BKPR Decoded METAR 2020/02/21 15:30 UTC NOAA

Station name not available
Feb 21, 2020 - 10:30 AM EST / 2020.02.21 1530 UTC
Wind: Variable at 3 MPH (3 KT):0
Visibility: greater than 7 mile(s):0
Sky conditions: partly cloudy
Temperature: 50 F (10 C)
Dew Point: 15 F (-9 C)
Relative Humidity: 25%
Pressure (altimeter): 30.15 in. Hg (1021 hPa)
ob: BKPR 211530Z VRB03KT 9999 SCT080 10/M09 Q1021 NOSIG RMK 17010095
cycle: 15

Station Type Date Time Source
BKPR TAF 2020/02/21 12:30 UTC NOAA

TAF BKPR 211130Z 2112/2212 35008KT 9999 FEW050 PROB40
TEMPO 2202/2209 35018KT 3000 -SN BR BKN010

Example: see airport list